Flight Track Log - Related Links

Times and Time Zones

All times are in EDT time to prevent confusion due to time zone crossing. See the SKQ45 flight status page for this flight to view local times or setup timezone preferences in your user account.

Time Position Orientation Groundspeed Altitude Reporting Facility
EDT Latitude Longitude Course Direction KTS MPH feet Rate Location/Type
Fri 01:50:34 AM 40.0461 -83.0378 169° South 189 217 2,800  Level Indianapolis Center
Fri 01:51:04 AM 40.0278 -83.0261 154° Southeast 157 181 4,000 2,459 Climbing Indianapolis Center
Fri 01:51:35 AM 40.0081 -83.0142 155° Southeast 158 182 5,300 2,500 Climbing Indianapolis Center
Fri 01:52:04 AM 39.9906 -83.0008 150° Southeast 153 176 6,500 2,267 Climbing Indianapolis Center
Fri 01:53:05 AM 39.9575 -82.9678 143° Southeast 150 173 8,700 1,835 Climbing Indianapolis Center
Fri 01:54:05 AM 39.9178 -82.9286 143° Southeast 173 199 10,200 1,650 Climbing Indianapolis Center
Fri 01:55:05 AM 39.8694 -82.8831 144° Southeast 208 239 12,000 1,500 Climbing Indianapolis Center
Fri 01:56:05 AM 39.8286 -82.8436 143° Southeast 215 247 13,200 1,388 Climbing Indianapolis Center
Fri 01:57:06 AM 39.7758 -82.7928 143° Southeast 231 266 14,800 1,587 Climbing Indianapolis Center
Fri 01:58:06 AM 39.7219 -82.7422 144° Southeast 236 272 16,400 1,450 Climbing Indianapolis Center
Fri 01:59:06 AM 39.6658 -82.6892 144° Southeast 244 281 17,700 1,150 Climbing Indianapolis Center
Fri 02:00:06 AM 39.6086 -82.6361 144° Southeast 249 287 18,700 650 Climbing Indianapolis Center
Fri 02:01:06 AM 39.5469 -82.5767 143° Southeast 267 307 19,000 149 Climbing Indianapolis Center
Fri 02:02:07 AM 39.4772 -82.5111 144° Southeast 301 346 19,000  Level Indianapolis Center
Fri 02:03:07 AM 39.4000 -82.4408 145° Southeast 312 359 19,000  Level Indianapolis Center
Fri 02:04:07 AM 39.3303 -82.3750 144° Southeast 311 358 19,000  Level Indianapolis Center
Fri 02:05:07 AM 39.2594 -82.3086 144° Southeast 313 360 19,000  Level Indianapolis Center
Fri 02:06:07 AM 39.1886 -82.2425 144° Southeast 314 361 19,000  Level Indianapolis Center
Fri 02:07:07 AM 39.1192 -82.1769 144° Southeast 311 358 19,000  Level Indianapolis Center
Fri 02:08:08 AM 39.0483 -82.1122 145° Southeast 312 359 19,000  Level Indianapolis Center
Fri 02:09:08 AM 38.9775 -82.0469 144° Southeast 314 361 19,000  Level Indianapolis Center
Fri 02:10:08 AM 38.9078 -81.9828 144° Southeast 309 356 19,000  Level Indianapolis Center
Fri 02:11:08 AM 38.8381 -81.9172 144° Southeast 310 357 19,000  Level Indianapolis Center
Fri 02:12:08 AM 38.7675 -81.8539 145° Southeast 310 357 19,000  Level Indianapolis Center
Fri 02:13:08 AM 38.6967 -81.7897 145° Southeast 312 359 19,000  Level Indianapolis Center
Fri 02:14:08 AM 38.6269 -81.7256 144° Southeast 312 359 19,000  Level Indianapolis Center
Fri 02:15:09 AM 38.5567 -81.6614 144° Southeast 315 362 19,000  Level Indianapolis Center
Fri 02:16:09 AM 38.4861 -81.5981 145° Southeast 313 360 19,000  Level Indianapolis Center
Fri 02:17:09 AM 38.4153 -81.5333 144° Southeast 315 362 19,000  Level Indianapolis Center
Fri 02:18:09 AM 38.3450 -81.4697 145° Southeast 312 359 19,000  Level Indianapolis Center
Fri 02:19:09 AM 38.2744 -81.4069 145° Southeast 310 357 19,000  Level Indianapolis Center
Fri 02:20:09 AM 38.2031 -81.3436 145° Southeast 312 359 19,000  Level Indianapolis Center
Fri 02:21:10 AM 38.1308 -81.2783 145° Southeast 318 366 19,000  Level Indianapolis Center
Fri 02:22:10 AM 38.0608 -81.2147 144° Southeast 312 359 19,000  Level Indianapolis Center
Fri 02:23:10 AM 37.9883 -81.1508 145° Southeast 316 364 19,000  Level Indianapolis Center
Fri 02:24:10 AM 37.9164 -81.0875 145° Southeast 315 362 19,000  Level Indianapolis Center
Fri 02:25:10 AM 37.8456 -81.0225 144° Southeast 315 362 19,000  Level Indianapolis Center
Fri 02:26:18 AM 37.7594 -80.9506 147° Southeast 313 360 19,000  Level Washington Center
Fri 02:27:18 AM 37.6872 -80.8878 145° Southeast 313 360 19,000  Level Washington Center
Fri 02:28:18 AM 37.6228 -80.8308 145° Southeast 313 360 19,000  Level Washington Center
Fri 02:29:18 AM 37.5525 -80.7708 146° Southeast 313 360 19,000  Level Washington Center
Fri 02:30:16 AM 37.4800 -80.7083 146° Southeast 313 360 19,000  Level Washington Center
Fri 02:31:16 AM 37.4097 -80.6436 144° Southeast 313 360 19,000  Level Washington Center
Fri 02:32:16 AM 37.3292 -80.5756 146° Southeast 313 360 19,000  Level Washington Center
Fri 02:33:17 AM 37.2586 -80.5133 145° Southeast 313 360 19,000  Level Washington Center
Fri 02:34:16 AM 37.1861 -80.4489 145° Southeast 313 360 19,000  Level Washington Center
Fri 02:35:16 AM 37.1217 -80.3953 146° Southeast 313 360 19,000 -450 Level Washington Center
Fri 02:36:16 AM 37.0492 -80.3308 145° Southeast 318 366 18,100 -750 Descending Washington Center
Fri 02:37:16 AM 36.9725 -80.2636 145° Southeast 323 372 17,500 -600 Descending Washington Center
Fri 02:40:00 AM 36.8593 -80.1641 147° Southeast  Level FlightAware Approximate
Fri 02:47:00 AM 36.4145 -79.7860 147° Southeast  Level FlightAware Approximate
Fri 02:48:00 AM 36.3502 -79.7335 147° Southeast  Level FlightAware Approximate
Fri 02:49:00 AM 36.2868 -79.6792 145° Southeast  Level FlightAware Approximate
Fri 02:50:00 AM 36.2240 -79.6240 141° Southeast  Level FlightAware Approximate
Fri 02:51:00 AM 36.1589 -79.5733 149° Southeast  Level FlightAware Approximate
Fri 02:52:00 AM 36.0982 -79.5149 141° Southeast  Level FlightAware Approximate
Fri 02:53:00 AM 36.0485 -79.4749 152° Southeast  Level Estimated
Fri 02:54:00 AM 36.0485 -79.4749 152° Southeast  Level Estimated

Login

Don't have an account? Register now (free) for customized features, flight alerts, and more!